DW2802 Ogijares ES current weather conditions

sailwx.info

Wind from 168 at 6 knots gusting 13

Air temperature 20.0° C
Dewpoint 0.9° C

Last reported at 2020-Feb-28 13:00 UTC.
Time now 2020-Feb-28 14:16 UTC

Location: N 37°07' W 003°36'.
View on Google Maps.

See reports from other nearby stations

  
Tides and Currents Weather Stations Pressure Air Temp Water Temp Dewpoint Dewpoint Depression Visibility Wind Speed Wind Dir Waves Ship Positions
date/time (UTC)wind fromknots sea level pressurealtimeterstation pressurevisibilityair tempwater tempwave heightnotes
2020-Feb-28 13:00 168 6 gusting 13 20.0
2020-Feb-28 12:45 099 0 gusting 3 20.0
2020-Feb-28 12:30 111 1 gusting 6 20.0
2020-Feb-28 12:17 129 2 gusting 6 19.4
2020-Feb-28 12:01 145 0 gusting 3 18.9
2020-Feb-28 11:46 145 18.3
2020-Feb-28 11:32 145 1 gusting 3 17.8
2020-Feb-28 11:16 145 3 gusting 4 16.7
2020-Feb-28 11:01 153 0 gusting 5 16.7
2020-Feb-28 10:46 153 1 gusting 5 15.6
2020-Feb-28 10:32 155 1 gusting 5 15.0
2020-Feb-28 10:16 157 1 gusting 4 14.4
2020-Feb-28 10:00 157 2 gusting 4 13.3
2020-Feb-28 09:46 157 0 gusting 4 12.2
2020-Feb-28 09:30 157 2 gusting 6 11.1
2020-Feb-28 09:15 161 3 gusting 5 11.7
2020-Feb-28 09:00 161 3 gusting 5 11.1
2020-Feb-28 08:45 161 10.0
2020-Feb-28 08:30 161 0 gusting 3 10.0
2020-Feb-28 08:16 161 10.0
2020-Feb-28 08:01 161 8.9
2020-Feb-28 07:32 161 1 gusting 5 6.7
2020-Feb-28 07:16 161 3 gusting 5 6.1
2020-Feb-28 07:01 161 3 gusting 5 5.6
2020-Feb-28 06:46 161 1 gusting 3 6.1
2020-Feb-28 06:30 161 0 gusting 2 6.1
2020-Feb-28 06:16 161 0 gusting 2 6.7
2020-Feb-28 06:01 161 1 gusting 4 6.7
2020-Feb-28 05:47 161 2 gusting 3 6.7
2020-Feb-28 05:30 161 1 gusting 3 6.7
2020-Feb-28 05:15 161 2 gusting 4 6.7
2020-Feb-28 05:01 161 1 gusting 5 6.7
2020-Feb-28 04:46 161 3 gusting 5 7.2
2020-Feb-28 04:30 161 3 gusting 5 6.7
2020-Feb-28 04:15 161 2 gusting 4 6.7
2020-Feb-28 04:01 161 2 gusting 4 7.2
2020-Feb-28 03:45 161 1 gusting 4 6.7
2020-Feb-28 03:30 161 1 gusting 4 6.7
2020-Feb-28 03:16 161 2 gusting 5 6.7
2020-Feb-28 03:01 161 3 gusting 5 7.2
2020-Feb-28 02:45 163 2 gusting 4 7.2
2020-Feb-28 02:30 163 2 gusting 3 7.8
2020-Feb-28 02:15 163 0 gusting 5 7.8
2020-Feb-28 02:01 163 4 gusting 6 8.3
2020-Feb-28 01:45 164 3 gusting 5 8.3
2020-Feb-28 01:30 164 4 gusting 6 8.3
2020-Feb-28 01:15 164 4 gusting 6 7.8
2020-Feb-28 01:00 164 5 gusting 6 8.3
2020-Feb-28 00:45 164 3 gusting 5 8.3
2020-Feb-28 00:30 164 4 gusting 6 7.8
2020-Feb-28 00:17 164 3 gusting 5 8.3
2020-Feb-28 00:02 165 3 gusting 5 8.3
2020-Feb-27 23:47 165 3 gusting 5 8.3
2020-Feb-27 23:31 165 3 gusting 5 8.9
2020-Feb-27 23:16 165 4 gusting 5 8.9
2020-Feb-27 23:02 165 3 gusting 5 8.9
2020-Feb-27 22:46 165 2 gusting 5 8.9
2020-Feb-27 22:32 165 3 gusting 5 8.9
2020-Feb-27 22:17 165 2 gusting 6 8.9
2020-Feb-27 22:00 166 4 gusting 6 8.9
2020-Feb-27 21:46 166 3 gusting 4 9.4
2020-Feb-27 21:31 166 3 gusting 5 10.0
2020-Feb-27 21:16 166 3 gusting 4 10.6
2020-Feb-27 21:01 166 0 gusting 2 11.1
2020-Feb-27 20:46 166 1 gusting 2 11.1
2020-Feb-27 20:30 166 0 gusting 4 11.1
2020-Feb-27 20:16 166 1 gusting 2 11.1
2020-Feb-27 20:00 166 11.7
2020-Feb-27 19:46 166 3 gusting 6 11.7
2020-Feb-27 19:31 174 4 gusting 6 12.2
2020-Feb-27 19:15 287 1 gusting 3 12.8
2020-Feb-27 19:00 287 1 gusting 3 13.3
2020-Feb-27 18:45 287 0 gusting 2 14.4
2020-Feb-27 18:30 287 0 gusting 3 15.0
2020-Feb-27 18:01 301 1 gusting 3 17.2
2020-Feb-27 17:47 301 0 gusting 4 17.8
2020-Feb-27 17:31 301 0 gusting 6 18.3
2020-Feb-27 17:16 304 2 gusting 6 18.3
2020-Feb-27 17:01 304 3 gusting 6 18.3
2020-Feb-27 16:46 307 3 gusting 7 18.9
2020-Feb-27 16:31 306 5 gusting 8 18.9
2020-Feb-27 16:16 315 3 gusting 7 18.9
2020-Feb-27 16:01 300 3 gusting 6 18.9
2020-Feb-27 15:46 302 3 gusting 11 18.3
2020-Feb-27 15:31 336 3 gusting 7 18.3
2020-Feb-27 15:17 009 5 gusting 9 17.8
2020-Feb-27 15:00 329 3 gusting 8 17.8
2020-Feb-27 14:46 313 3 gusting 8 17.2
2020-Feb-27 14:32 298 4 gusting 7 17.2
2020-Feb-27 14:16 317 4 gusting 11 16.7
2020-Feb-27 14:02
2020-Feb-27 13:47 313 0 gusting 3 16.1
2020-Feb-27 13:32 309 3 gusting 6 16.1
2020-Feb-27 13:16 322 15.6
2020-Feb-27 13:01 322 4 gusting 7 15.0
2020-Feb-27 12:46 349 0 gusting 7 15.0
2020-Feb-27 12:31 302 4 gusting 7 15.0
2020-Feb-27 12:15 300 2 gusting 7 14.4
2020-Feb-27 12:00 278 14.4
2020-Feb-27 11:46 276 2 gusting 6 13.9
2020-Feb-27 11:32 272 2 gusting 6 12.8
2020-Feb-27 11:15 270 0 gusting 5 12.2
2020-Feb-27 11:00 269 4 gusting 6 12.8
2020-Feb-27 10:45 262 0 gusting 6 12.2
2020-Feb-27 10:30 257 1 gusting 5 11.7
2020-Feb-27 10:15 254 2 gusting 6 11.1
2020-Feb-27 10:01 250 1 gusting 6 10.6
2020-Feb-27 09:46 245 1 gusting 4 10.0
2020-Feb-27 09:31 245 0 gusting 2 9.4
2020-Feb-27 09:16 245 0 gusting 2 8.9
2020-Feb-27 09:00 245 8.3
2020-Feb-27 08:46 245 7.2
2020-Feb-27 08:30 245 6.7
2020-Feb-27 08:15 245 6.1
2020-Feb-27 08:00 245 5.6
2020-Feb-27 07:45 245 4.4
2020-Feb-27 07:30 245 0 gusting 1 4.4
2020-Feb-27 07:16 245 4.4
2020-Feb-27 07:01 245 4.4
2020-Feb-27 06:45 245 4.4
2020-Feb-27 06:30 245 2 gusting 3 4.4
2020-Feb-27 06:15 245 1 gusting 3 4.4
2020-Feb-27 06:00 245 1 gusting 3 4.4
2020-Feb-27 05:45 245 1 gusting 2 4.4
2020-Feb-27 05:30 245 0 gusting 2 4.4
2020-Feb-27 05:15 245 1 gusting 3 5.0
2020-Feb-27 05:00 245 5.6
2020-Feb-27 04:45 245 0 gusting 2 5.6
2020-Feb-27 04:31 245 0 gusting 2 5.6
2020-Feb-27 04:30 245 0 gusting 2 5.6
2020-Feb-27 04:16 245 1 gusting 3 5.6
2020-Feb-27 04:01 245 1 gusting 2 5.6
2020-Feb-27 03:46 245 0 gusting 1 6.1
2020-Feb-27 03:31 245 6.1
2020-Feb-27 03:16 245 1 gusting 2 6.1
2020-Feb-27 03:01 245 1 gusting 3 6.1
2020-Feb-27 02:49 245 1 gusting 2 6.1
2020-Feb-27 02:31 246 1 gusting 3 6.1
2020-Feb-27 02:16 246 0 gusting 2 6.1
2020-Feb-27 02:02 246 6.7
2020-Feb-27 01:47 246 1 gusting 2 6.7
2020-Feb-27 01:31 247 2 gusting 4 6.7
2020-Feb-27 01:16 249 1 gusting 3 6.7
2020-Feb-27 01:01 250 1 gusting 3 6.7
2020-Feb-27 00:46 250 1 gusting 3 6.7
2020-Feb-27 00:30 252 0 gusting 2 6.7
2020-Feb-27 00:16 252 1 gusting 3 6.7
2020-Feb-27 00:01 252 1 gusting 3 7.2
2020-Feb-26 23:46 254 1 gusting 3 7.2
2020-Feb-26 23:31 258 1 gusting 3 7.8
2020-Feb-26 23:16 259 2 gusting 3 7.8
2020-Feb-26 23:00 261 1 gusting 3 7.8
2020-Feb-26 22:45 262 2 gusting 3 7.8
2020-Feb-26 22:30 263 1 gusting 3 8.3
2020-Feb-26 22:15 265 1 gusting 3 8.3
2020-Feb-26 22:00 268 2 gusting 3 8.3
2020-Feb-26 21:45 271 1 gusting 5 8.3
2020-Feb-26 21:30 276 2 gusting 3 8.9
2020-Feb-26 21:15 279 1 gusting 3 8.9
2020-Feb-26 21:00 280 2 gusting 3 9.4
2020-Feb-26 20:45 281 2 gusting 6 10.0
2020-Feb-26 20:30 309 1 gusting 2 10.6
2020-Feb-26 20:15 309 10.6
2020-Feb-26 20:00 310 1 gusting 3 11.1
2020-Feb-26 19:45 311 0 gusting 3 12.8
2020-Feb-26 19:30 311 0 gusting 5 12.8
2020-Feb-26 19:15 312 1 gusting 3 13.3
2020-Feb-26 19:00 312 1 gusting 5 14.4
2020-Feb-26 18:45 312 0 gusting 6 14.4
2020-Feb-26 18:30 322 3 gusting 8 15.0
2020-Feb-26 18:15 309 2 gusting 5 15.0
2020-Feb-26 18:00 311 0 gusting 2 16.1
2020-Feb-26 17:45 311 1 gusting 4 16.1
2020-Feb-26 17:30 311 5 gusting 9 16.7
2020-Feb-26 17:15 314 5 gusting 10 16.7
2020-Feb-26 17:00 302 4 gusting 11 17.2
2020-Feb-26 16:45 303 6 gusting 12 17.2
2020-Feb-26 16:30 288 6 gusting 11 17.8
2020-Feb-26 16:15 329 5 gusting 11 17.8
2020-Feb-26 16:00 290 4 gusting 12 17.8
2020-Feb-26 15:45 312 5 gusting 10 18.3
2020-Feb-26 15:30 330 1 gusting 9 18.3
2020-Feb-26 15:01 323 5 gusting 10 17.8
2020-Feb-26 14:46 337 5 gusting 11 17.8
2020-Feb-26 14:31 304 4 gusting 8 17.2
2020-Feb-26 14:16 322 7 gusting 11 16.7
2020-Feb-26 14:02 319 3 gusting 9 16.7